Time;durP1;ratioP1;P1;durP2;ratioP2;P2;SDS_P1;SDS_P2;PMS_P1;PMS_P2;Temp;Humidity;BMP_temperature;BMP_pressure;BME280_temperature;BME280_humidity;BME280_pressure;Samples;Min_cycle;Max_cycle;Signal;HPM_P1;HPM_P2
2022/01/01 00:00:48;;;;;;;126.70;71.70;;;13.30;99.90;;;;;;5028080;28;20037;-78
2022/01/01 00:03:13;;;;;;;119.45;72.07;;;13.30;99.90;;;;;;5028878;28;20029;-74
2022/01/01 00:05:39;;;;;;;128.35;80.05;;;13.30;99.90;;;;;;5027724;28;20026;-73
2022/01/01 00:08:06;;;;;;;138.38;88.00;;;13.30;99.90;;;;;;5032138;28;20025;-74
2022/01/01 00:10:32;;;;;;;206.70;128.98;;;13.40;99.90;;;;;;5030876;28;20026;-75
2022/01/01 00:12:58;;;;;;;173.25;101.53;;;13.30;99.90;;;;;;5031061;28;20388;-76
2022/01/01 00:15:23;;;;;;;158.32;93.50;;;13.40;99.90;;;;;;5031307;28;20036;-77
2022/01/01 00:17:49;;;;;;;201.23;133.77;;;13.40;99.90;;;;;;5032101;28;20072;-74
2022/01/01 00:20:15;;;;;;;155.50;89.22;;;13.40;99.90;;;;;;5029134;28;20052;-76
2022/01/01 00:22:44;;;;;;;144.80;77.70;;;13.40;99.90;;;;;;5032058;28;20069;-76
2022/01/01 00:25:12;;;;;;;117.60;58.42;;;13.30;99.90;;;;;;5027872;28;20033;-74
2022/01/01 00:27:38;;;;;;;100.15;54.25;;;13.30;99.90;;;;;;5029228;28;20037;-76
2022/01/01 00:30:07;;;;;;;101.05;50.53;;;13.30;99.90;;;;;;5031454;28;20083;-75
2022/01/01 00:32:37;;;;;;;98.57;50.40;;;13.40;99.90;;;;;;5032199;28;20034;-74
2022/01/01 00:35:04;;;;;;;96.80;49.17;;;13.30;99.90;;;;;;5030308;28;20041;-78
2022/01/01 00:37:30;;;;;;;86.35;46.75;;;13.40;99.90;;;;;;5033114;28;20079;-76
2022/01/01 00:39:56;;;;;;;78.38;40.47;;;13.40;99.90;;;;;;5035430;28;20029;-73
2022/01/01 00:42:23;;;;;;;72.53;38.00;;;13.40;99.90;;;;;;5030577;28;20042;-76
2022/01/01 00:44:49;;;;;;;72.07;37.85;;;13.40;99.90;;;;;;5031903;28;20821;-80
2022/01/01 00:47:15;;;;;;;78.80;42.30;;;13.40;99.90;;;;;;5032079;28;20037;-78
2022/01/01 00:49:40;;;;;;;71.00;36.42;;;13.40;99.90;;;;;;5034573;28;20056;-75
2022/01/01 00:52:06;;;;;;;76.72;43.00;;;13.40;99.90;;;;;;5033147;28;20040;-76
2022/01/01 00:54:31;;;;;;;67.90;38.28;;;13.30;99.90;;;;;;5032354;28;20120;-75
2022/01/01 00:56:57;;;;;;;66.10;37.42;;;13.30;99.90;;;;;;5031877;28;20040;-75
2022/01/01 00:59:24;;;;;;;59.75;33.38;;;13.30;99.90;;;;;;5030451;28;20029;-75
2022/01/01 01:01:49;;;;;;;57.55;33.60;;;13.30;99.90;;;;;;5031862;28;20469;-74
2022/01/01 01:04:15;;;;;;;63.38;34.72;;;13.30;99.90;;;;;;5033096;28;20040;-77
2022/01/01 01:06:41;;;;;;;61.80;33.72;;;13.30;99.90;;;;;;5033145;28;20033;-76
2022/01/01 01:09:06;;;;;;;64.88;34.47;;;13.30;99.90;;;;;;5033990;28;20033;-77
2022/01/01 01:11:41;;;;;;;71.18;38.15;;;13.30;99.90;;;;;;5029261;28;20037;-73
2022/01/01 01:14:08;;;;;;;67.47;36.17;;;13.40;99.90;;;;;;5034103;28;20088;-74
2022/01/01 01:16:34;;;;;;;68.07;36.47;;;13.30;99.90;;;;;;5032667;28;20026;-77
2022/01/01 01:19:00;;;;;;;74.30;37.80;;;13.30;99.90;;;;;;5034028;28;20037;-76
2022/01/01 01:21:25;;;;;;;68.82;38.25;;;13.30;99.90;;;;;;5031514;28;20037;-75
2022/01/01 01:23:53;;;;;;;67.95;36.35;;;13.30;99.90;;;;;;5034246;28;20040;-74
2022/01/01 01:26:18;;;;;;;70.22;37.60;;;13.40;99.90;;;;;;5034262;28;20035;-77
2022/01/01 01:28:50;;;;;;;67.00;38.22;;;13.30;99.90;;;;;;5030978;28;20041;-75
2022/01/01 01:31:17;;;;;;;64.15;36.03;;;13.40;99.90;;;;;;5034992;28;20037;-74
2022/01/01 01:33:43;;;;;;;69.25;37.65;;;13.30;99.90;;;;;;5034905;28;20385;-75
2022/01/01 01:36:10;;;;;;;67.50;41.83;;;13.30;99.90;;;;;;5034742;28;20029;-75
2022/01/01 01:38:36;;;;;;;76.35;38.63;;;13.30;99.90;;;;;;5034589;28;20022;-74
2022/01/01 01:41:06;;;;;;;69.18;38.33;;;13.30;99.90;;;;;;5033986;28;20401;-74
2022/01/01 01:43:33;;;;;;;74.80;40.17;;;13.30;99.90;;;;;;5034688;28;20039;-74
2022/01/01 01:46:04;;;;;;;69.57;38.88;;;13.30;99.90;;;;;;5034530;28;20033;-74
2022/01/01 01:48:34;;;;;;;76.72;40.65;;;13.30;99.90;;;;;;5033989;28;20021;-74
2022/01/01 01:51:00;;;;;;;78.93;42.90;;;13.30;99.90;;;;;;5034540;28;20026;-74
2022/01/01 01:53:27;;;;;;;80.78;43.92;;;13.20;99.90;;;;;;5033660;28;20038;-74
2022/01/01 01:55:55;;;;;;;82.70;45.17;;;13.20;99.90;;;;;;5034380;28;20032;-74
2022/01/01 01:58:21;;;;;;;78.85;44.92;;;13.20;99.90;;;;;;5034236;28;20092;-74
2022/01/01 02:03:12;;;;;;;74.78;42.15;;;13.20;99.90;;;;;;5033457;28;20028;-76
2022/01/01 02:05:39;;;;;;;79.60;42.88;;;13.20;99.90;;;;;;5033618;28;20034;-78
2022/01/01 02:08:06;;;;;;;75.55;40.45;;;13.20;99.90;;;;;;5034371;28;20415;-77
2022/01/01 02:10:35;;;;;;;76.72;39.88;;;13.10;99.90;;;;;;5037117;28;20033;-78
2022/01/01 02:13:10;;;;;;;68.80;37.22;;;13.10;99.90;;;;;;5042219;28;20040;-80
2022/01/01 02:15:59;;;;;;;68.88;35.05;;;13.20;99.90;;;;;;5033278;28;20025;-77
2022/01/01 02:18:24;;;;;;;65.78;33.28;;;13.10;99.90;;;;;;5033950;28;20103;-79
2022/01/01 02:20:50;;;;;;;66.72;31.05;;;13.10;99.90;;;;;;5031631;28;20058;-79
2022/01/01 02:23:25;;;;;;;63.78;31.38;;;13.10;99.90;;;;;;5031190;28;20029;-79
2022/01/01 02:25:52;;;;;;;62.00;31.80;;;13.20;99.90;;;;;;5030172;28;20108;-78
2022/01/01 02:28:19;;;;;;;64.38;30.13;;;13.10;99.90;;;;;;5031043;28;20068;-86
2022/01/01 02:30:44;;;;;;;61.72;31.95;;;13.10;99.90;;;;;;5031760;28;20041;-80
2022/01/01 02:33:10;;;;;;;70.72;33.08;;;13.10;99.90;;;;;;5032041;28;20079;-80
2022/01/01 02:35:36;;;;;;;56.78;28.92;;;13.10;99.90;;;;;;5031039;28;20037;-80
2022/01/01 02:38:02;;;;;;;57.25;28.92;;;13.00;99.90;;;;;;5032052;28;20033;-80
2022/01/01 02:40:27;;;;;;;62.50;30.48;;;13.10;99.90;;;;;;5031384;28;20029;-81
2022/01/01 02:42:54;;;;;;;71.57;30.90;;;13.10;99.90;;;;;;5034310;28;20029;-81
2022/01/01 02:45:20;;;;;;;69.57;32.50;;;13.10;99.90;;;;;;5033308;28;20029;-80
2022/01/01 02:47:46;;;;;;;59.95;31.00;;;13.10;99.90;;;;;;5034164;28;20038;-81
2022/01/01 02:50:12;;;;;;;63.58;31.23;;;13.10;99.90;;;;;;5033360;28;20021;-81
2022/01/01 02:52:39;;;;;;;64.10;31.00;;;13.10;99.90;;;;;;5033287;28;20484;-81
2022/01/01 02:55:06;;;;;;;64.43;30.92;;;13.10;99.90;;;;;;5033108;28;20096;-81
2022/01/01 02:57:32;;;;;;;63.33;30.35;;;13.10;99.90;;;;;;5033298;28;20029;-80
2022/01/01 02:59:57;;;;;;;60.70;29.23;;;13.20;99.90;;;;;;5032748;28;20033;-81
2022/01/01 03:02:23;;;;;;;62.83;29.98;;;13.10;99.90;;;;;;5033455;28;20105;-81
2022/01/01 03:04:49;;;;;;;63.58;28.73;;;13.10;99.90;;;;;;5033590;28;20021;-80
2022/01/01 03:07:14;;;;;;;53.90;29.33;;;13.10;99.90;;;;;;5033260;28;20415;-81
2022/01/01 03:09:40;;;;;;;60.17;28.65;;;13.20;99.90;;;;;;5033395;28;20032;-80
2022/01/01 03:12:08;;;;;;;54.50;29.30;;;13.20;99.90;;;;;;5033447;28;20029;-81
2022/01/01 03:14:35;;;;;;;58.38;28.67;;;13.20;99.90;;;;;;5032853;28;20288;-80
2022/01/01 03:17:01;;;;;;;56.45;29.35;;;13.20;99.90;;;;;;5032964;28;20084;-78
2022/01/01 03:19:27;;;;;;;59.95;28.27;;;13.20;99.90;;;;;;5033399;28;20075;-79
2022/01/01 03:21:53;;;;;;;57.30;29.98;;;13.20;99.90;;;;;;5033010;28;20037;-79
2022/01/01 03:24:18;;;;;;;65.55;30.45;;;13.30;99.90;;;;;;5032957;28;20021;-78
2022/01/01 03:26:44;;;;;;;63.22;30.20;;;13.30;99.90;;;;;;5032218;28;20113;-80
2022/01/01 03:29:10;;;;;;;61.55;29.73;;;13.30;99.90;;;;;;5033496;28;20017;-80
2022/01/01 03:31:36;;;;;;;57.60;29.80;;;13.30;99.90;;;;;;5032762;28;20113;-81
2022/01/01 03:34:02;;;;;;;62.00;30.70;;;13.30;99.90;;;;;;5033475;28;20481;-81
2022/01/01 03:36:29;;;;;;;66.80;31.00;;;13.30;99.90;;;;;;5032702;28;20029;-80
2022/01/01 03:38:55;;;;;;;60.13;31.38;;;13.30;99.90;;;;;;5033426;28;20089;-81
2022/01/01 03:41:21;;;;;;;64.25;31.30;;;13.30;99.90;;;;;;5032589;28;20041;-81
2022/01/01 03:43:47;;;;;;;67.05;33.47;;;13.30;99.90;;;;;;5032667;28;20077;-80
2022/01/01 03:46:14;;;;;;;65.60;32.35;;;13.30;99.90;;;;;;5032753;28;20037;-80
2022/01/01 03:48:39;;;;;;;63.13;32.70;;;13.30;99.90;;;;;;5033450;28;20025;-80
2022/01/01 03:51:05;;;;;;;62.47;32.45;;;13.30;99.90;;;;;;5032234;28;20022;-81
2022/01/01 03:53:31;;;;;;;66.05;33.60;;;13.30;99.90;;;;;;5032953;28;20052;-80
2022/01/01 03:55:58;;;;;;;64.13;33.85;;;13.30;99.90;;;;;;5032275;28;20034;-80
2022/01/01 03:58:24;;;;;;;59.90;33.80;;;13.30;99.90;;;;;;5033155;28;20080;-80
2022/01/01 04:00:50;;;;;;;58.00;31.83;;;13.30;99.90;;;;;;5032375;28;20022;-80
2022/01/01 04:03:18;;;;;;;61.47;33.63;;;13.40;99.90;;;;;;5033261;28;20036;-80
2022/01/01 04:05:45;;;;;;;70.20;32.35;;;13.40;99.90;;;;;;5032908;28;20447;-81
2022/01/01 04:08:12;;;;;;;58.83;32.70;;;13.40;99.90;;;;;;5033256;28;20029;-81
2022/01/01 04:10:38;;;;;;;68.70;33.75;;;13.40;99.90;;;;;;5034166;28;20037;-81
2022/01/01 04:13:06;;;;;;;62.50;32.70;;;13.40;99.90;;;;;;5036850;28;20029;-81
2022/01/01 04:15:33;;;;;;;55.20;31.33;;;13.40;99.90;;;;;;5035905;28;20025;-81
2022/01/01 04:18:03;;;;;;;62.13;31.55;;;13.40;99.90;;;;;;5037141;28;20029;-81
2022/01/01 04:20:29;;;;;;;59.47;31.92;;;13.50;99.90;;;;;;5036701;28;20032;-80
2022/01/01 04:22:56;;;;;;;61.40;32.05;;;13.50;99.90;;;;;;5036684;28;20526;-81
2022/01/01 04:25:23;;;;;;;57.38;31.65;;;13.50;99.90;;;;;;5036294;28;20063;-81
2022/01/01 04:27:50;;;;;;;56.88;30.27;;;13.50;99.90;;;;;;5036544;28;20034;-81
2022/01/01 04:30:17;;;;;;;58.22;30.55;;;13.50;99.90;;;;;;5036356;28;20377;-80
2022/01/01 04:32:42;;;;;;;57.00;29.50;;;13.60;99.90;;;;;;5036438;28;20075;-81
2022/01/01 04:35:09;;;;;;;65.55;30.00;;;13.60;99.90;;;;;;5035817;28;20492;-81
2022/01/01 04:37:35;;;;;;;57.30;28.40;;;13.60;99.90;;;;;;5036326;28;20045;-81
2022/01/01 04:40:02;;;;;;;62.97;29.15;;;13.60;99.90;;;;;;5036187;28;20021;-80
2022/01/01 04:42:30;;;;;;;58.05;28.25;;;13.60;99.90;;;;;;5036369;28;20025;-81
2022/01/01 04:44:55;;;;;;;54.58;27.67;;;13.60;99.90;;;;;;5036136;28;20025;-81
2022/01/01 04:47:21;;;;;;;55.03;27.25;;;13.60;99.90;;;;;;5036188;28;20026;-81
2022/01/01 04:49:47;;;;;;;54.28;27.02;;;13.60;99.90;;;;;;5036724;28;20021;-81
2022/01/01 04:52:14;;;;;;;53.25;27.40;;;13.60;99.90;;;;;;5036063;28;20519;-81
2022/01/01 04:54:41;;;;;;;56.03;27.80;;;13.60;99.90;;;;;;5036192;28;20385;-81
2022/01/01 04:57:07;;;;;;;57.65;27.10;;;13.70;99.90;;;;;;5035894;28;20029;-81
2022/01/01 04:59:34;;;;;;;47.75;25.67;;;13.70;99.90;;;;;;5037253;28;20076;-81
2022/01/01 05:02:00;;;;;;;45.20;24.80;;;13.70;99.90;;;;;;5047328;28;20099;-81
2022/01/01 05:04:26;;;;;;;50.15;24.67;;;13.70;99.90;;;;;;5036308;28;20037;-81
2022/01/01 05:06:52;;;;;;;50.60;23.23;;;13.70;99.90;;;;;;5035857;28;20029;-80
2022/01/01 05:09:19;;;;;;;41.25;22.13;;;13.70;99.90;;;;;;5036095;28;20087;-81
2022/01/01 05:11:45;;;;;;;39.97;20.83;;;13.70;99.90;;;;;;5035529;28;20057;-82
2022/01/01 05:14:11;;;;;;;41.05;19.58;;;13.70;99.90;;;;;;5036170;28;20076;-82
2022/01/01 05:16:37;;;;;;;43.50;19.85;;;13.80;99.90;;;;;;5035751;28;20059;-81
2022/01/01 05:19:02;;;;;;;38.20;17.95;;;13.80;99.90;;;;;;5035443;28;20026;-81
2022/01/01 05:21:32;;;;;;;35.38;17.98;;;13.80;99.90;;;;;;5033557;28;20037;-82
2022/01/01 05:23:58;;;;;;;38.00;18.40;;;13.80;99.90;;;;;;5035512;28;20040;-81
2022/01/01 05:26:24;;;;;;;43.70;19.15;;;13.80;99.90;;;;;;5035216;28;20033;-81
2022/01/01 05:28:49;;;;;;;40.83;19.00;;;13.80;99.90;;;;;;5035343;28;20040;-82
2022/01/01 05:31:19;;;;;;;39.83;17.75;;;13.80;99.90;;;;;;5034803;28;20035;-81
2022/01/01 05:33:49;;;;;;;37.50;17.27;;;13.80;99.90;;;;;;5035298;28;20030;-81
2022/01/01 05:36:16;;;;;;;29.75;16.33;;;13.80;99.90;;;;;;5034671;28;20103;-81
2022/01/01 05:38:42;;;;;;;34.05;15.77;;;13.80;99.90;;;;;;5035548;28;20026;-81
2022/01/01 05:41:08;;;;;;;38.08;16.73;;;13.80;99.90;;;;;;5035003;28;20366;-81
2022/01/01 05:43:35;;;;;;;35.85;15.13;;;13.80;99.90;;;;;;5034918;28;20440;-81
2022/01/01 05:46:01;;;;;;;33.70;17.48;;;13.80;99.90;;;;;;5035172;28;20045;-81
2022/01/01 05:48:27;;;;;;;32.22;14.05;;;13.80;99.90;;;;;;5035116;28;20037;-80
2022/01/01 05:50:54;;;;;;;29.63;14.00;;;13.90;99.90;;;;;;5033993;28;20048;-78
2022/01/01 05:53:20;;;;;;;28.38;13.55;;;13.90;99.90;;;;;;5034783;28;20128;-78
2022/01/01 05:55:47;;;;;;;35.58;13.77;;;13.80;99.90;;;;;;5034513;28;20124;-79
2022/01/01 05:58:13;;;;;;;26.23;11.65;;;13.80;99.90;;;;;;5048608;28;20026;-79
2022/01/01 06:00:39;;;;;;;25.25;11.27;;;13.80;99.90;;;;;;5033976;28;20124;-81
2022/01/01 06:03:05;;;;;;;30.40;11.82;;;13.80;99.90;;;;;;5035064;28;20061;-82
2022/01/01 06:05:31;;;;;;;30.73;12.15;;;13.80;99.90;;;;;;5034043;28;20064;-79
2022/01/01 06:07:57;;;;;;;32.95;11.70;;;13.80;99.90;;;;;;5034875;28;20049;-79
2022/01/01 06:10:24;;;;;;;22.67;11.70;;;13.70;99.90;;;;;;5034142;28;20021;-79
2022/01/01 06:12:52;;;;;;;24.65;10.73;;;13.70;99.90;;;;;;5034974;28;20060;-81
2022/01/01 06:15:18;;;;;;;20.90;10.68;;;13.70;99.90;;;;;;5034227;28;20026;-80
2022/01/01 06:17:43;;;;;;;24.15;9.77;;;13.70;99.90;;;;;;5033613;28;20060;-81
2022/01/01 06:20:10;;;;;;;27.27;10.90;;;13.70;99.90;;;;;;5034101;28;20041;-80
2022/01/01 06:22:36;;;;;;;27.27;10.70;;;13.70;99.90;;;;;;5034185;28;20496;-81
2022/01/01 06:25:02;;;;;;;25.52;9.80;;;13.70;99.90;;;;;;5034201;28;20097;-81
2022/01/01 06:27:28;;;;;;;24.10;9.70;;;13.70;99.90;;;;;;5033964;28;20485;-81
2022/01/01 06:29:54;;;;;;;24.05;10.55;;;13.60;99.90;;;;;;5034613;28;20081;-81
2022/01/01 06:32:20;;;;;;;22.80;10.02;;;13.50;99.90;;;;;;5034234;28;20075;-81
2022/01/01 06:34:46;;;;;;;23.83;9.80;;;13.60;99.90;;;;;;5034055;28;20443;-82
2022/01/01 06:37:11;;;;;;;26.20;11.90;;;13.60;99.90;;;;;;5033734;28;20136;-83
2022/01/01 06:39:37;;;;;;;26.27;11.18;;;13.60;99.90;;;;;;5034516;28;20082;-82
2022/01/01 06:42:03;;;;;;;24.15;11.80;;;13.60;99.90;;;;;;5033940;28;20034;-81
2022/01/01 06:44:28;;;;;;;20.00;9.77;;;13.60;99.90;;;;;;5033943;28;20117;-80
2022/01/01 06:46:54;;;;;;;25.10;10.13;;;13.70;99.90;;;;;;5033174;28;20031;-81
2022/01/01 06:49:20;;;;;;;25.50;11.73;;;13.70;99.90;;;;;;5034416;28;20021;-81
2022/01/01 06:51:49;;;;;;;21.98;10.90;;;13.70;99.90;;;;;;5037280;28;20080;-80
2022/01/01 06:54:15;;;;;;;21.15;10.73;;;13.70;99.90;;;;;;5040727;28;20505;-82
2022/01/01 06:56:40;;;;;;;23.80;12.43;;;13.70;99.90;;;;;;5033447;28;20079;-82
2022/01/01 06:59:07;;;;;;;30.77;14.75;;;13.70;99.90;;;;;;5034013;28;20021;-82
2022/01/01 07:01:32;;;;;;;28.48;15.65;;;13.70;99.90;;;;;;5033641;28;20389;-81
2022/01/01 07:03:58;;;;;;;31.83;16.80;;;13.60;99.90;;;;;;5034206;28;20021;-81
2022/01/01 07:06:23;;;;;;;36.85;16.75;;;13.60;99.90;;;;;;5033453;28;20416;-82
2022/01/01 07:08:49;;;;;;;34.63;17.40;;;13.50;99.90;;;;;;5033487;28;20044;-81
2022/01/01 07:11:15;;;;;;;32.65;16.75;;;13.50;99.90;;;;;;5033683;28;20118;-82
2022/01/01 07:13:40;;;;;;;32.28;15.60;;;13.40;99.90;;;;;;5033485;28;20032;-81
2022/01/01 07:16:06;;;;;;;30.88;15.88;;;13.40;99.90;;;;;;5033318;28;20036;-81
2022/01/01 07:18:32;;;;;;;28.40;14.35;;;13.30;99.90;;;;;;5033681;28;20465;-81
2022/01/01 07:20:58;;;;;;;29.45;14.93;;;13.30;99.90;;;;;;5031866;28;20052;-80
2022/01/01 07:23:24;;;;;;;29.40;13.80;;;13.30;99.90;;;;;;5033385;28;20053;-81
2022/01/01 07:25:49;;;;;;;29.25;13.05;;;13.20;99.90;;;;;;5033566;28;20354;-81
2022/01/01 07:28:16;;;;;;;28.65;13.27;;;13.10;99.90;;;;;;5033592;28;20029;-81
2022/01/01 07:30:43;;;;;;;24.27;12.18;;;13.10;99.90;;;;;;5033293;28;20029;-80
2022/01/01 07:33:12;;;;;;;24.50;10.45;;;13.10;99.90;;;;;;5033973;28;20025;-82
2022/01/01 07:35:38;;;;;;;25.65;10.18;;;13.10;99.90;;;;;;5033542;28;20030;-81
2022/01/01 07:38:04;;;;;;;24.33;7.63;;;13.10;99.90;;;;;;5033550;28;20026;-81
2022/01/01 07:40:32;;;;;;;19.60;7.88;;;13.10;99.90;;;;;;5033587;28;20389;-81
2022/01/01 07:42:58;;;;;;;22.23;7.45;;;13.10;99.90;;;;;;5033083;28;20112;-80
2022/01/01 07:45:23;;;;;;;17.50;6.97;;;13.10;99.90;;;;;;5034763;28;20112;-80
2022/01/01 07:47:49;;;;;;;14.93;6.20;;;13.10;99.90;;;;;;5037630;28;20108;-82
2022/01/01 07:50:15;;;;;;;17.65;6.70;;;13.10;99.90;;;;;;5037198;28;20033;-82
2022/01/01 07:52:42;;;;;;;21.80;6.57;;;13.10;99.90;;;;;;5037255;28;20029;-82
2022/01/01 07:55:08;;;;;;;15.45;6.47;;;13.20;99.90;;;;;;5037306;28;20180;-81
2022/01/01 07:57:34;;;;;;;18.17;6.47;;;13.10;99.90;;;;;;5036805;28;20401;-81
2022/01/01 08:00:00;;;;;;;19.00;6.55;;;13.20;99.90;;;;;;5037061;28;20575;-81
2022/01/01 08:02:26;;;;;;;20.48;6.63;;;13.10;99.90;;;;;;5037226;28;20113;-82
2022/01/01 08:04:52;;;;;;;15.02;5.53;;;13.10;99.90;;;;;;5037452;28;20039;-82
2022/01/01 08:07:17;;;;;;;17.67;6.28;;;13.20;99.90;;;;;;5035598;28;20399;-82
2022/01/01 08:09:43;;;;;;;17.35;5.72;;;13.10;99.90;;;;;;5037267;28;20044;-82
2022/01/01 08:12:09;;;;;;;17.33;5.60;;;13.10;99.90;;;;;;5036122;28;20026;-82
2022/01/01 08:14:35;;;;;;;15.32;5.65;;;13.10;99.90;;;;;;5035151;28;20092;-81
2022/01/01 08:17:05;;;;;;;13.73;5.72;;;13.10;99.90;;;;;;5036402;28;20060;-82
2022/01/01 08:19:31;;;;;;;18.50;5.82;;;13.10;99.90;;;;;;5036810;28;20469;-82
2022/01/01 08:21:57;;;;;;;16.83;5.45;;;13.10;99.90;;;;;;5036399;28;20033;-81
2022/01/01 08:24:23;;;;;;;16.05;5.18;;;13.20;99.90;;;;;;5036889;28;20515;-82
2022/01/01 08:26:49;;;;;;;17.45;5.65;;;13.20;99.90;;;;;;5036091;28;20061;-82
2022/01/01 08:29:16;;;;;;;15.27;5.35;;;13.20;99.90;;;;;;5036777;28;20033;-81
2022/01/01 08:31:41;;;;;;;15.88;6.10;;;13.20;99.90;;;;;;5036161;28;20465;-82
2022/01/01 08:34:08;;;;;;;13.40;5.53;;;13.20;99.90;;;;;;5036648;28;20025;-81
2022/01/01 08:36:33;;;;;;;18.60;5.60;;;13.20;99.90;;;;;;5036002;28;20033;-81
2022/01/01 08:38:59;;;;;;;13.43;5.10;;;13.20;99.90;;;;;;5036127;28;20071;-82
2022/01/01 08:41:25;;;;;;;9.57;4.63;;;13.30;99.90;;;;;;5036260;28;20489;-82
2022/01/01 08:43:52;;;;;;;17.83;4.90;;;13.30;99.90;;;;;;5036311;28;20036;-81
2022/01/01 08:46:18;;;;;;;16.15;5.40;;;13.30;99.90;;;;;;5036090;28;20035;-82
2022/01/01 08:48:43;;;;;;;13.32;4.90;;;13.30;99.90;;;;;;5036183;28;20026;-82
2022/01/01 08:51:28;;;;;;;19.48;5.88;;;13.30;99.90;;;;;;5035616;28;20115;-81
2022/01/01 08:53:54;;;;;;;14.18;4.75;;;13.40;99.90;;;;;;5036036;28;20044;-80
2022/01/01 08:56:20;;;;;;;13.50;3.95;;;13.30;99.90;;;;;;5035539;28;20112;-81
2022/01/01 08:58:46;;;;;;;12.95;4.95;;;13.40;99.90;;;;;;5035999;28;20384;-81
2022/01/01 09:01:12;;;;;;;15.43;4.15;;;13.40;99.90;;;;;;5035361;28;20046;-81
2022/01/01 09:03:38;;;;;;;21.05;4.72;;;13.40;99.90;;;;;;5035913;28;20035;-81
2022/01/01 09:06:05;;;;;;;17.98;4.72;;;13.40;99.90;;;;;;5036398;28;20069;-81
2022/01/01 09:08:32;;;;;;;18.10;4.65;;;13.40;99.90;;;;;;5035356;28;20113;-81
2022/01/01 09:10:59;;;;;;;13.40;4.10;;;13.40;99.90;;;;;;5035536;28;20091;-79
2022/01/01 09:13:24;;;;;;;9.05;3.50;;;13.40;99.90;;;;;;5035411;28;20083;-78
2022/01/01 09:15:50;;;;;;;12.57;4.50;;;13.50;99.90;;;;;;5035393;28;20029;-85
2022/01/01 09:18:16;;;;;;;12.32;4.22;;;13.50;99.90;;;;;;5035581;28;20025;-82
2022/01/01 09:20:41;;;;;;;11.70;4.30;;;13.50;99.90;;;;;;5035568;28;20465;-80
2022/01/01 09:23:07;;;;;;;13.20;3.50;;;13.50;99.90;;;;;;5035041;28;20128;-78
2022/01/01 09:25:33;;;;;;;13.57;4.55;;;13.60;99.90;;;;;;5035186;28;20033;-76
2022/01/01 09:27:59;;;;;;;14.02;4.07;;;13.60;99.90;;;;;;5034865;28;20042;-76
2022/01/01 09:30:24;;;;;;;14.98;4.15;;;13.60;99.90;;;;;;5034928;28;20087;-76
2022/01/01 09:32:51;;;;;;;18.45;5.05;;;13.70;99.90;;;;;;5034942;28;20034;-76
2022/01/01 09:35:18;;;;;;;10.82;4.57;;;13.70;99.90;;;;;;5035070;28;20025;-76
2022/01/01 09:37:44;;;;;;;13.15;4.28;;;13.70;99.90;;;;;;5033690;28;20041;-76
2022/01/01 09:40:10;;;;;;;11.20;3.70;;;13.70;99.90;;;;;;5034964;28;20033;-76
2022/01/01 09:42:39;;;;;;;16.08;4.22;;;13.70;99.90;;;;;;5034246;28;20029;-76
2022/01/01 09:45:06;;;;;;;15.13;4.35;;;13.70;99.90;;;;;;5034714;28;20137;-76
2022/01/01 09:47:31;;;;;;;11.23;4.10;;;13.70;99.90;;;;;;5034361;28;20033;-77
2022/01/01 09:49:57;;;;;;;14.02;4.20;;;13.70;99.90;;;;;;5034437;28;20029;-77
2022/01/01 09:52:24;;;;;;;11.00;3.65;;;13.70;99.90;;;;;;5034415;28;20067;-77
2022/01/01 09:54:51;;;;;;;10.23;3.72;;;13.70;99.90;;;;;;5033984;28;20057;-77
2022/01/01 09:57:17;;;;;;;13.05;3.95;;;13.70;99.90;;;;;;5034094;28;20033;-76
2022/01/01 09:59:43;;;;;;;14.35;3.75;;;13.70;99.90;;;;;;5034174;28;20029;-76
2022/01/01 10:02:09;;;;;;;10.43;3.33;;;13.70;99.90;;;;;;5034089;28;20045;-77
2022/01/01 10:04:48;;;;;;;13.27;3.83;;;13.70;99.90;;;;;;5033569;28;20477;-77
2022/01/01 10:07:14;;;;;;;12.82;4.57;;;13.60;99.90;;;;;;5033383;28;20091;-77
2022/01/01 10:09:40;;;;;;;12.32;4.20;;;13.70;99.90;;;;;;5033649;28;20428;-80
2022/01/01 10:12:09;;;;;;;13.32;5.03;;;13.70;99.90;;;;;;5034339;28;20026;-80
2022/01/01 10:14:37;;;;;;;10.82;3.95;;;13.70;99.90;;;;;;5033897;28;20087;-79
2022/01/01 10:17:17;;;;;;;16.13;3.92;;;13.70;99.90;;;;;;5034138;28;20060;-79
2022/01/01 10:19:43;;;;;;;11.73;3.97;;;13.70;99.90;;;;;;5034015;28;20109;-78
2022/01/01 10:22:13;;;;;;;10.50;3.75;;;13.80;99.90;;;;;;5033874;28;20443;-79
2022/01/01 10:27:45;;;;;;;13.30;4.32;;;13.80;99.90;;;;;;5034215;28;20071;-80
2022/01/01 10:30:39;;;;;;;16.17;4.45;;;13.90;99.90;;;;;;5033727;28;20086;-80
2022/01/01 10:33:09;;;;;;;10.95;4.07;;;14.00;99.90;;;;;;5033413;28;20037;-80
2022/01/01 10:35:45;;;;;;;12.57;4.63;;;14.00;99.90;;;;;;5033781;28;20083;-80
2022/01/01 10:38:23;;;;;;;12.98;4.18;;;14.00;99.90;;;;;;5034172;28;20025;-80
2022/01/01 10:41:09;;;;;;;14.77;4.50;;;14.10;99.90;;;;;;5033520;28;20436;-79
2022/01/01 10:43:40;;;;;;;15.95;4.95;;;14.10;99.90;;;;;;5033865;28;20031;-78
2022/01/01 10:46:09;;;;;;;13.43;4.88;;;14.10;99.90;;;;;;5033633;28;20055;-78
2022/01/01 10:51:07;;;;;;;11.70;4.50;;;14.10;99.90;;;;;;5033003;28;20025;-79
2022/01/01 10:53:34;;;;;;;11.75;4.40;;;14.10;99.90;;;;;;5033530;28;20041;-78
2022/01/01 10:56:03;;;;;;;13.30;4.00;;;14.10;99.90;;;;;;5032586;28;20037;-78
2022/01/01 10:58:34;;;;;;;9.07;4.25;;;14.20;99.90;;;;;;5033750;28;20033;-78
2022/01/01 11:01:05;;;;;;;9.05;4.50;;;14.10;99.90;;;;;;5032939;28;20396;-78
2022/01/01 11:03:56;;;;;;;11.77;4.75;;;14.10;99.90;;;;;;5033292;28;20040;-79
2022/01/01 11:06:22;;;;;;;10.52;4.82;;;14.10;99.90;;;;;;5032404;28;20037;-79
2022/01/01 11:08:49;;;;;;;13.27;5.05;;;14.10;99.90;;;;;;5033549;28;20108;-79
2022/01/01 11:11:15;;;;;;;16.42;5.50;;;14.10;99.90;;;;;;5032777;28;20060;-78
2022/01/01 11:13:42;;;;;;;11.45;5.40;;;14.10;99.90;;;;;;5033176;28;20043;-79
2022/01/01 11:16:09;;;;;;;12.30;4.93;;;14.10;99.90;;;;;;5032842;28;20105;-79
2022/01/01 11:18:36;;;;;;;11.40;5.13;;;14.10;99.90;;;;;;5033248;28;20041;-80
2022/01/01 11:21:04;;;;;;;13.60;5.60;;;14.20;99.90;;;;;;5031909;28;20045;-78
2022/01/01 11:23:32;;;;;;;14.45;4.90;;;14.20;99.90;;;;;;5033319;28;20021;-80
2022/01/01 11:25:58;;;;;;;12.75;4.45;;;14.20;99.90;;;;;;5032525;28;20037;-80
2022/01/01 11:28:24;;;;;;;9.38;4.40;;;14.20;99.90;;;;;;5027567;28;20021;-78
2022/01/01 11:30:52;;;;;;;12.15;4.82;;;14.30;99.90;;;;;;5029171;28;20025;-78
2022/01/01 11:33:26;;;;;;;10.68;5.03;;;14.30;99.90;;;;;;5022901;28;20101;-77
2022/01/01 11:35:57;;;;;;;10.48;4.47;;;14.30;99.90;;;;;;5026754;28;20034;-79
2022/01/01 11:38:25;;;;;;;11.63;5.10;;;14.30;99.90;;;;;;5032818;28;20028;-78
2022/01/01 11:40:58;;;;;;;14.07;4.60;;;14.30;99.90;;;;;;5023421;28;20037;-79
2022/01/01 11:43:51;;;;;;;14.15;6.53;;;14.30;99.90;;;;;;5032995;28;20022;-78
2022/01/01 11:46:29;;;;;;;9.85;4.88;;;14.30;99.90;;;;;;5033082;28;20060;-79
2022/01/01 11:48:58;;;;;;;7.65;4.30;;;14.30;99.90;;;;;;5032673;28;20049;-79
2022/01/01 11:51:50;;;;;;;9.32;4.40;;;14.30;99.90;;;;;;5031965;28;20032;-80
2022/01/01 11:54:18;;;;;;;11.75;4.63;;;14.30;99.90;;;;;;5032851;28;20050;-79
2022/01/01 11:57:01;;;;;;;12.10;4.95;;;14.30;99.90;;;;;;5030840;28;20021;-79
2022/01/01 11:59:27;;;;;;;13.75;4.82;;;14.30;99.90;;;;;;5026304;28;20072;-77
2022/01/01 12:02:04;;;;;;;11.32;5.07;;;14.30;99.90;;;;;;5028170;28;20500;-78
2022/01/01 12:04:40;;;;;;;10.23;4.68;;;14.30;99.90;;;;;;5023697;28;20032;-81
2022/01/01 12:07:20;;;;;;;11.65;4.88;;;14.30;99.90;;;;;;5023483;28;20061;-80
2022/01/01 12:09:55;;;;;;;12.40;4.28;;;14.30;99.90;;;;;;5023948;28;20026;-82
2022/01/01 12:12:54;;;;;;;11.48;4.97;;;14.20;99.90;;;;;;5018711;28;20564;-80
2022/01/01 12:15:35;;;;;;;11.00;4.68;;;14.30;99.90;;;;;;5014346;28;20133;-79
2022/01/01 12:18:15;;;;;;;10.00;4.70;;;14.30;99.90;;;;;;5012961;28;20398;-80
2022/01/01 12:20:57;;;;;;;10.65;4.30;;;14.30;99.90;;;;;;5030274;28;20034;-79
2022/01/01 12:23:36;;;;;;;8.73;4.03;;;14.40;99.90;;;;;;5032988;28;20017;-79
2022/01/01 12:26:08;;;;;;;12.75;4.47;;;14.40;99.90;;;;;;5031639;28;20038;-79
2022/01/01 12:28:36;;;;;;;9.83;4.10;;;14.40;99.90;;;;;;5032388;28;20021;-78
2022/01/01 12:31:20;;;;;;;11.32;4.32;;;14.40;99.90;;;;;;5036402;28;20045;-79
2022/01/01 12:33:52;;;;;;;11.50;4.53;;;14.40;99.90;;;;;;5038400;28;20414;-79
2022/01/01 12:36:22;;;;;;;8.90;4.22;;;14.50;99.90;;;;;;5036214;28;20033;-80
2022/01/01 12:39:00;;;;;;;10.50;4.35;;;14.50;99.90;;;;;;5035899;28;20026;-79
2022/01/01 12:41:32;;;;;;;10.88;4.50;;;14.60;99.90;;;;;;5034913;28;20408;-79